THY36 EDDF-LTFM
Flight info
| Callsign | THY36 |
|---|---|
| Flight time | 2h 27m |
| Altitude | 35000 |
| Route | CINDY8S/18 CINDY Z74 HAREM DCT ASLEP DCT TAKUT DCT DINKU L603 BESNI L605 MIQ DCT ALUTU DCT BIBAG L605 ESEGA DCT VELOM DCT GOTAR DCT BABIT DCT ESIRI DCT ETIDA T390 RILEX |
| Aircraft | A321/M-SDE3FGHIRWY/LB1 |
Departure
| Time | 2026-05-04 14:43 |
|---|---|
| Airport | Frankfurt Main Airport (EDDF) |
Arrival
| Time | 2026-05-04 17:11 |
|---|---|
| Airport | İstanbul Airport (LTFM) |
| Time | Latitude | Longitude | Altitude | Speed | Heading |
|---|---|---|---|---|---|
| 2026-05-04 13:58 | 50.04414 | 8.56217 | 355 ft | 0 kts | 159° |
| 2026-05-04 14:30 | 50.04425 | 8.56211 | 345 ft | 4 kts | 167° |
| 2026-05-04 14:30 | 50.04474 | 8.56226 | 350 ft | 4 kts | 228° |
| 2026-05-04 14:31 | 50.04485 | 8.56252 | 353 ft | 0 kts | 250° |
| 2026-05-04 14:34 | 50.04485 | 8.56250 | 354 ft | 1 kts | 250° |
| 2026-05-04 14:35 | 50.04481 | 8.56235 | 355 ft | 3 kts | 250° |
| 2026-05-04 14:35 | 50.04464 | 8.56165 | 353 ft | 12 kts | 249° |
| 2026-05-04 14:35 | 50.04428 | 8.56048 | 356 ft | 13 kts | 226° |
| 2026-05-04 14:35 | 50.04362 | 8.56045 | 351 ft | 9 kts | 165° |
| 2026-05-04 14:36 | 50.04286 | 8.56068 | 345 ft | 13 kts | 198° |
| 2026-05-04 14:36 | 50.04243 | 8.55954 | 351 ft | 10 kts | 248° |
| 2026-05-04 14:36 | 50.04216 | 8.55844 | 348 ft | 13 kts | 249° |
| 2026-05-04 14:36 | 50.04178 | 8.55684 | 353 ft | 18 kts | 250° |
| 2026-05-04 14:37 | 50.04134 | 8.55499 | 350 ft | 18 kts | 249° |
| 2026-05-04 14:37 | 50.04089 | 8.55311 | 349 ft | 19 kts | 248° |
| 2026-05-04 14:37 | 50.04047 | 8.55140 | 351 ft | 17 kts | 250° |
| 2026-05-04 14:37 | 50.04006 | 8.54962 | 353 ft | 18 kts | 250° |
| 2026-05-04 14:38 | 50.03963 | 8.54781 | 350 ft | 18 kts | 249° |
| 2026-05-04 14:38 | 50.03917 | 8.54596 | 350 ft | 18 kts | 249° |
| 2026-05-04 14:38 | 50.03872 | 8.54409 | 350 ft | 18 kts | 247° |
| 2026-05-04 14:38 | 50.03806 | 8.54241 | 351 ft | 16 kts | 244° |
| 2026-05-04 14:39 | 50.03764 | 8.54075 | 354 ft | 17 kts | 249° |
| 2026-05-04 14:39 | 50.03724 | 8.53903 | 345 ft | 17 kts | 250° |
| 2026-05-04 14:39 | 50.03681 | 8.53728 | 349 ft | 18 kts | 249° |
| 2026-05-04 14:40 | 50.03591 | 8.53362 | 353 ft | 19 kts | 250° |
| 2026-05-04 14:40 | 50.03546 | 8.53172 | 355 ft | 19 kts | 249° |
| 2026-05-04 14:40 | 50.03499 | 8.52979 | 350 ft | 19 kts | 250° |
| 2026-05-04 14:40 | 50.03450 | 8.52792 | 347 ft | 16 kts | 247° |
| 2026-05-04 14:41 | 50.03406 | 8.52644 | 349 ft | 14 kts | 232° |
| 2026-05-04 14:41 | 50.03325 | 8.52594 | 349 ft | 9 kts | 180° |
| 2026-05-04 14:41 | 50.03312 | 8.52595 | 349 ft | 0 kts | 179° |
| 2026-05-04 14:42 | 50.03131 | 8.52596 | 346 ft | 61 kts | 180° |
| 2026-05-04 14:42 | 50.02482 | 8.52602 | 346 ft | 123 kts | 179° |
| 2026-05-04 14:43 | 50.01459 | 8.52610 | 361 ft | 168 kts | 181° |
| 2026-05-04 14:43 | 50.00287 | 8.52605 | 943 ft | 166 kts | 183° |
| 2026-05-04 14:43 | 49.99113 | 8.52616 | 1557 ft | 170 kts | 182° |
| 2026-05-04 14:43 | 49.97874 | 8.52631 | 1949 ft | 188 kts | 180° |
| 2026-05-04 14:44 | 49.96581 | 8.53320 | 2073 ft | 218 kts | 142° |
| 2026-05-04 14:44 | 49.95620 | 8.55345 | 2292 ft | 242 kts | 120° |
| 2026-05-04 14:44 | 49.94817 | 8.57617 | 3037 ft | 240 kts | 120° |
| 2026-05-04 14:44 | 49.94136 | 8.59987 | 3713 ft | 244 kts | 104° |
| 2026-05-04 14:45 | 49.93934 | 8.62705 | 4037 ft | 265 kts | 93° |
| 2026-05-04 14:45 | 49.93827 | 8.65652 | 4532 ft | 277 kts | 93° |
| 2026-05-04 14:45 | 49.93443 | 8.68586 | 5235 ft | 279 kts | 115° |
| 2026-05-04 14:45 | 49.92354 | 8.71023 | 6058 ft | 273 kts | 140° |
| 2026-05-04 14:46 | 49.90848 | 8.72781 | 6875 ft | 271 kts | 147° |
| 2026-05-04 14:46 | 49.89326 | 8.74501 | 7612 ft | 273 kts | 142° |
| 2026-05-04 14:46 | 49.88046 | 8.76656 | 8310 ft | 278 kts | 127° |
| 2026-05-04 14:46 | 49.87063 | 8.79269 | 9043 ft | 281 kts | 122° |
| 2026-05-04 14:47 | 49.86111 | 8.81929 | 9785 ft | 283 kts | 122° |
| 2026-05-04 14:47 | 49.85144 | 8.84615 | 10318 ft | 292 kts | 123° |
| 2026-05-04 14:47 | 49.84108 | 8.87465 | 10452 ft | 315 kts | 123° |
| 2026-05-04 14:47 | 49.82994 | 8.90512 | 10579 ft | 336 kts | 123° |
| 2026-05-04 14:48 | 49.81811 | 8.93751 | 10695 ft | 355 kts | 123° |
| 2026-05-04 14:48 | 49.80575 | 8.97132 | 11034 ft | 365 kts | 122° |
| 2026-05-04 14:48 | 49.79316 | 9.00585 | 11587 ft | 370 kts | 122° |
| 2026-05-04 14:48 | 49.78046 | 9.04081 | 12190 ft | 374 kts | 122° |
| 2026-05-04 14:49 | 49.76788 | 9.07629 | 12758 ft | 379 kts | 118° |
| 2026-05-04 14:49 | 49.75842 | 9.11488 | 13355 ft | 386 kts | 108° |
| 2026-05-04 14:49 | 49.75131 | 9.15505 | 13897 ft | 389 kts | 111° |
| 2026-05-04 14:49 | 49.74011 | 9.19322 | 14422 ft | 390 kts | 122° |
| 2026-05-04 14:50 | 49.72442 | 9.22744 | 14965 ft | 391 kts | 133° |
| 2026-05-04 14:50 | 49.70635 | 9.25899 | 15516 ft | 394 kts | 134° |
| 2026-05-04 14:50 | 49.68816 | 9.29093 | 16066 ft | 398 kts | 134° |
| 2026-05-04 14:50 | 49.66986 | 9.32322 | 16606 ft | 401 kts | 134° |
| 2026-05-04 14:51 | 49.65170 | 9.35537 | 17136 ft | 405 kts | 134° |
| 2026-05-04 14:51 | 49.63337 | 9.38870 | 17637 ft | 410 kts | 130° |
| 2026-05-04 14:51 | 49.61795 | 9.42630 | 18127 ft | 418 kts | 120° |
| 2026-05-04 14:51 | 49.60682 | 9.46799 | 18593 ft | 425 kts | 111° |
| 2026-05-04 14:52 | 49.59763 | 9.51141 | 18997 ft | 428 kts | 111° |
| 2026-05-04 14:52 | 49.58829 | 9.55517 | 19424 ft | 431 kts | 111° |
| 2026-05-04 14:52 | 49.57883 | 9.59910 | 19861 ft | 434 kts | 111° |
| 2026-05-04 14:52 | 49.56923 | 9.64331 | 20290 ft | 436 kts | 111° |
| 2026-05-04 14:53 | 49.55953 | 9.68779 | 20700 ft | 439 kts | 111° |
| 2026-05-04 14:53 | 49.54978 | 9.73254 | 21110 ft | 442 kts | 111° |
| 2026-05-04 14:53 | 49.53999 | 9.77750 | 21531 ft | 444 kts | 112° |
| 2026-05-04 14:53 | 49.52836 | 9.82151 | 21935 ft | 443 kts | 120° |
| 2026-05-04 14:54 | 49.51249 | 9.86206 | 22329 ft | 442 kts | 129° |
| 2026-05-04 14:54 | 49.49334 | 9.89906 | 22705 ft | 443 kts | 133° |
| 2026-05-04 14:54 | 49.47380 | 9.93590 | 23095 ft | 445 kts | 133° |
| 2026-05-04 14:54 | 49.45422 | 9.97290 | 23488 ft | 448 kts | 133° |
| 2026-05-04 14:55 | 49.43455 | 10.01022 | 23820 ft | 450 kts | 133° |
| 2026-05-04 14:55 | 49.41477 | 10.04771 | 24142 ft | 452 kts | 133° |
| 2026-05-04 14:55 | 49.39486 | 10.08528 | 24458 ft | 455 kts | 133° |
| 2026-05-04 14:55 | 49.37486 | 10.12298 | 24768 ft | 457 kts | 133° |
| 2026-05-04 14:56 | 49.35469 | 10.16096 | 25071 ft | 459 kts | 133° |
| 2026-05-04 14:56 | 49.33449 | 10.19899 | 25365 ft | 461 kts | 133° |
| 2026-05-04 14:56 | 49.31417 | 10.23716 | 25656 ft | 463 kts | 133° |
| 2026-05-04 14:56 | 49.29370 | 10.27549 | 25950 ft | 466 kts | 133° |
| 2026-05-04 14:57 | 49.27310 | 10.31400 | 26215 ft | 468 kts | 133° |
| 2026-05-04 14:57 | 49.25241 | 10.35262 | 26502 ft | 471 kts | 133° |
| 2026-05-04 14:57 | 49.23106 | 10.39054 | 26793 ft | 470 kts | 138° |
| 2026-05-04 14:57 | 49.20766 | 10.42566 | 27091 ft | 472 kts | 139° |
| 2026-05-04 14:58 | 49.18438 | 10.46028 | 27435 ft | 472 kts | 139° |
| 2026-05-04 14:58 | 49.16085 | 10.49514 | 27873 ft | 471 kts | 139° |
| 2026-05-04 14:58 | 49.13729 | 10.53001 | 28292 ft | 470 kts | 139° |
| 2026-05-04 14:58 | 49.12173 | 10.55304 | 28564 ft | 469 kts | 139° |
| 2026-05-04 14:59 | 49.09047 | 10.59941 | 29146 ft | 468 kts | 139° |
| 2026-05-04 14:59 | 49.06712 | 10.63401 | 29519 ft | 468 kts | 139° |
| 2026-05-04 14:59 | 49.02031 | 10.70319 | 30194 ft | 469 kts | 139° |
| 2026-05-04 15:00 | 48.99689 | 10.73761 | 30573 ft | 467 kts | 139° |
| 2026-05-04 15:00 | 48.97353 | 10.77182 | 30950 ft | 465 kts | 139° |
| 2026-05-04 15:00 | 48.95025 | 10.80590 | 31310 ft | 464 kts | 139° |
| 2026-05-04 15:01 | 48.90381 | 10.87388 | 32038 ft | 461 kts | 139° |
| 2026-05-04 15:01 | 48.88074 | 10.90772 | 32394 ft | 460 kts | 139° |
| 2026-05-04 15:01 | 48.85775 | 10.94138 | 32736 ft | 458 kts | 139° |
| 2026-05-04 15:01 | 48.83476 | 10.97495 | 33073 ft | 457 kts | 139° |
| 2026-05-04 15:02 | 48.81186 | 11.00831 | 33376 ft | 456 kts | 139° |
| 2026-05-04 15:02 | 48.78921 | 11.04129 | 33682 ft | 456 kts | 139° |
| 2026-05-04 15:02 | 48.76636 | 11.07452 | 33997 ft | 455 kts | 139° |
| 2026-05-04 15:02 | 48.74358 | 11.10756 | 34331 ft | 453 kts | 139° |
| 2026-05-04 15:03 | 48.72075 | 11.14054 | 34680 ft | 452 kts | 139° |
| 2026-05-04 15:03 | 48.69799 | 11.17336 | 34897 ft | 452 kts | 139° |
| 2026-05-04 15:03 | 48.66148 | 11.23027 | 34948 ft | 456 kts | 130° |
| 2026-05-04 15:04 | 48.63056 | 11.31431 | 34951 ft | 462 kts | 111° |
| 2026-05-04 15:04 | 48.61087 | 11.40727 | 34950 ft | 466 kts | 110° |
| 2026-05-04 15:05 | 48.59103 | 11.50072 | 34948 ft | 467 kts | 110° |
| 2026-05-04 15:05 | 48.57117 | 11.59426 | 34949 ft | 468 kts | 107° |
| 2026-05-04 15:06 | 48.55679 | 11.69031 | 34954 ft | 469 kts | 104° |
| 2026-05-04 15:07 | 48.53574 | 11.83503 | 34956 ft | 470 kts | 104° |
| 2026-05-04 15:07 | 48.52170 | 11.93071 | 34961 ft | 470 kts | 104° |
| 2026-05-04 15:08 | 48.50744 | 12.02691 | 34956 ft | 470 kts | 104° |
| 2026-05-04 15:08 | 48.49303 | 12.12307 | 34964 ft | 470 kts | 104° |
| 2026-05-04 15:09 | 48.47864 | 12.21911 | 34945 ft | 470 kts | 104° |
| 2026-05-04 15:09 | 48.46410 | 12.31505 | 34953 ft | 469 kts | 105° |
| 2026-05-04 15:10 | 48.44219 | 12.45872 | 34942 ft | 469 kts | 105° |
| 2026-05-04 15:11 | 48.42010 | 12.60222 | 34940 ft | 469 kts | 105° |
| 2026-05-04 15:11 | 48.40523 | 12.69776 | 34942 ft | 468 kts | 105° |
| 2026-05-04 15:12 | 48.38741 | 12.79176 | 34938 ft | 466 kts | 111° |
| 2026-05-04 15:12 | 48.36598 | 12.88385 | 34937 ft | 466 kts | 111° |
| 2026-05-04 15:13 | 48.34457 | 12.97582 | 34939 ft | 466 kts | 111° |
| 2026-05-04 15:13 | 48.32315 | 13.06790 | 34926 ft | 466 kts | 111° |
| 2026-05-04 15:14 | 48.30174 | 13.15914 | 34933 ft | 466 kts | 111° |
| 2026-05-04 15:14 | 48.28010 | 13.25087 | 34933 ft | 466 kts | 111° |
| 2026-05-04 15:15 | 48.25842 | 13.34246 | 34938 ft | 465 kts | 111° |
| 2026-05-04 15:15 | 48.23670 | 13.43394 | 34920 ft | 465 kts | 111° |
| 2026-05-04 15:16 | 48.21108 | 13.52266 | 34917 ft | 462 kts | 124° |
| 2026-05-04 15:16 | 48.19384 | 13.56326 | 34921 ft | 462 kts | 125° |
| 2026-05-04 15:17 | 48.14168 | 13.68478 | 34927 ft | 463 kts | 125° |
| 2026-05-04 15:17 | 48.08932 | 13.80632 | 34921 ft | 464 kts | 125° |
| 2026-05-04 15:18 | 48.05432 | 13.88744 | 34924 ft | 464 kts | 125° |
| 2026-05-04 15:19 | 48.00163 | 14.00902 | 34936 ft | 465 kts | 125° |
| 2026-05-04 15:19 | 47.94866 | 14.13025 | 34930 ft | 465 kts | 125° |
| 2026-05-04 15:20 | 47.91353 | 14.21063 | 34934 ft | 466 kts | 125° |
| 2026-05-04 15:20 | 47.87815 | 14.29156 | 34937 ft | 466 kts | 125° |
| 2026-05-04 15:21 | 47.84262 | 14.37229 | 34950 ft | 466 kts | 125° |
| 2026-05-04 15:22 | 47.78915 | 14.49314 | 34958 ft | 466 kts | 125° |
| 2026-05-04 15:22 | 47.73549 | 14.61413 | 34957 ft | 468 kts | 125° |
| 2026-05-04 15:23 | 47.69954 | 14.69485 | 34969 ft | 469 kts | 125° |
| 2026-05-04 15:23 | 47.66349 | 14.77555 | 34988 ft | 468 kts | 125° |
| 2026-05-04 15:24 | 47.59141 | 14.93611 | 34992 ft | 468 kts | 125° |
| 2026-05-04 15:25 | 47.55529 | 15.01640 | 35000 ft | 468 kts | 125° |
| 2026-05-04 15:26 | 47.50095 | 15.13657 | 35007 ft | 469 kts | 125° |
| 2026-05-04 15:26 | 47.44665 | 15.25614 | 35010 ft | 469 kts | 125° |
| 2026-05-04 15:27 | 47.39189 | 15.37623 | 35013 ft | 470 kts | 125° |
| 2026-05-04 15:28 | 47.33699 | 15.49601 | 35013 ft | 469 kts | 125° |
| 2026-05-04 15:29 | 47.28199 | 15.61546 | 35009 ft | 469 kts | 125° |
| 2026-05-04 15:30 | 47.15327 | 15.89338 | 35017 ft | 470 kts | 124° |
| 2026-05-04 15:31 | 47.09798 | 16.01168 | 35017 ft | 470 kts | 124° |
| 2026-05-04 15:32 | 47.00534 | 16.20910 | 35016 ft | 470 kts | 124° |
| 2026-05-04 15:34 | 46.92546 | 16.41743 | 35022 ft | 471 kts | 119° |
| 2026-05-04 15:34 | 46.87783 | 16.54296 | 35033 ft | 470 kts | 118° |
| 2026-05-04 15:35 | 46.83018 | 16.66831 | 35039 ft | 470 kts | 118° |
| 2026-05-04 15:36 | 46.78237 | 16.79333 | 35031 ft | 470 kts | 119° |
| 2026-05-04 15:36 | 46.75047 | 16.87648 | 35037 ft | 470 kts | 119° |
| 2026-05-04 15:37 | 46.71851 | 16.95954 | 35050 ft | 470 kts | 118° |
| 2026-05-04 15:37 | 46.68650 | 17.04254 | 35052 ft | 470 kts | 118° |
| 2026-05-04 15:38 | 46.65448 | 17.12537 | 35047 ft | 469 kts | 119° |
| 2026-05-04 15:38 | 46.62239 | 17.20800 | 35046 ft | 469 kts | 119° |
| 2026-05-04 15:39 | 46.59044 | 17.29004 | 35044 ft | 469 kts | 119° |
| 2026-05-04 15:40 | 46.54212 | 17.41361 | 35056 ft | 469 kts | 119° |
| 2026-05-04 15:40 | 46.50983 | 17.49593 | 35059 ft | 469 kts | 119° |
| 2026-05-04 15:41 | 46.47749 | 17.57806 | 35070 ft | 469 kts | 119° |
| 2026-05-04 15:41 | 46.44513 | 17.66004 | 35068 ft | 468 kts | 119° |
| 2026-05-04 15:42 | 46.41410 | 17.73831 | 35067 ft | 467 kts | 119° |
| 2026-05-04 15:42 | 46.38167 | 17.81994 | 35069 ft | 467 kts | 119° |
| 2026-05-04 15:43 | 46.34926 | 17.90154 | 35067 ft | 467 kts | 119° |
| 2026-05-04 15:43 | 46.31678 | 17.98301 | 35080 ft | 467 kts | 119° |
| 2026-05-04 15:44 | 46.28422 | 18.06418 | 35078 ft | 467 kts | 119° |
| 2026-05-04 15:44 | 46.25159 | 18.14530 | 35080 ft | 466 kts | 119° |
| 2026-05-04 15:45 | 46.21894 | 18.22621 | 35079 ft | 466 kts | 119° |
| 2026-05-04 15:45 | 46.18617 | 18.30710 | 35083 ft | 466 kts | 119° |
| 2026-05-04 15:46 | 46.15346 | 18.38793 | 35077 ft | 466 kts | 119° |
| 2026-05-04 15:46 | 46.12075 | 18.46852 | 35080 ft | 466 kts | 119° |
| 2026-05-04 15:47 | 46.09345 | 18.53534 | 35080 ft | 466 kts | 119° |
| 2026-05-04 15:47 | 46.06058 | 18.61573 | 35088 ft | 466 kts | 119° |
| 2026-05-04 15:48 | 46.02769 | 18.69604 | 35077 ft | 466 kts | 119° |
| 2026-05-04 15:48 | 45.97816 | 18.81633 | 35077 ft | 466 kts | 119° |
| 2026-05-04 15:49 | 45.94506 | 18.89648 | 35089 ft | 466 kts | 119° |
| 2026-05-04 15:49 | 45.90657 | 18.97074 | 35089 ft | 468 kts | 129° |
| 2026-05-04 15:50 | 45.86366 | 19.04112 | 35088 ft | 469 kts | 129° |
| 2026-05-04 15:50 | 45.82072 | 19.11150 | 35089 ft | 469 kts | 129° |
| 2026-05-04 15:51 | 45.77777 | 19.18186 | 35092 ft | 469 kts | 130° |
| 2026-05-04 15:51 | 45.73469 | 19.25209 | 35096 ft | 469 kts | 129° |
| 2026-05-04 15:52 | 45.69157 | 19.32236 | 35096 ft | 470 kts | 129° |
| 2026-05-04 15:52 | 45.64837 | 19.39262 | 35095 ft | 470 kts | 129° |
| 2026-05-04 15:53 | 45.60522 | 19.46271 | 35098 ft | 470 kts | 129° |
| 2026-05-04 15:53 | 45.56197 | 19.53268 | 35099 ft | 470 kts | 129° |
| 2026-05-04 15:54 | 45.51856 | 19.60260 | 35105 ft | 470 kts | 129° |
| 2026-05-04 15:54 | 45.47513 | 19.67245 | 35104 ft | 470 kts | 129° |
| 2026-05-04 15:55 | 45.43172 | 19.74223 | 35096 ft | 470 kts | 130° |
| 2026-05-04 15:55 | 45.38826 | 19.81179 | 35114 ft | 470 kts | 129° |
| 2026-05-04 15:56 | 45.34494 | 19.88087 | 35111 ft | 471 kts | 129° |
| 2026-05-04 15:56 | 45.30135 | 19.95037 | 35111 ft | 471 kts | 129° |
| 2026-05-04 15:57 | 45.25772 | 20.01984 | 35114 ft | 471 kts | 129° |
| 2026-05-04 15:57 | 45.21398 | 20.08918 | 35121 ft | 471 kts | 129° |
| 2026-05-04 15:58 | 45.17011 | 20.15844 | 35120 ft | 471 kts | 129° |
| 2026-05-04 15:58 | 45.12625 | 20.22754 | 35118 ft | 471 kts | 129° |
| 2026-05-04 15:59 | 45.08235 | 20.29657 | 35116 ft | 471 kts | 129° |
| 2026-05-04 15:59 | 45.03847 | 20.36551 | 35127 ft | 472 kts | 129° |
| 2026-05-04 16:00 | 44.99445 | 20.43448 | 35107 ft | 472 kts | 129° |
| 2026-05-04 16:00 | 44.95038 | 20.50332 | 35100 ft | 472 kts | 129° |
| 2026-05-04 16:01 | 44.90627 | 20.57205 | 35108 ft | 473 kts | 130° |
| 2026-05-04 16:01 | 44.86206 | 20.64073 | 35122 ft | 473 kts | 129° |
| 2026-05-04 16:02 | 44.81772 | 20.70932 | 35119 ft | 473 kts | 129° |
| 2026-05-04 16:03 | 44.75123 | 20.81207 | 35121 ft | 473 kts | 129° |
| 2026-05-04 16:03 | 44.70683 | 20.88054 | 35132 ft | 474 kts | 129° |
| 2026-05-04 16:04 | 44.66270 | 20.94846 | 35129 ft | 474 kts | 129° |
| 2026-05-04 16:04 | 44.59584 | 21.05092 | 35124 ft | 474 kts | 130° |
| 2026-05-04 16:05 | 44.55125 | 21.11891 | 35115 ft | 473 kts | 130° |
| 2026-05-04 16:06 | 44.48449 | 21.22063 | 35129 ft | 472 kts | 130° |
| 2026-05-04 16:07 | 44.39549 | 21.35555 | 35122 ft | 471 kts | 130° |
| 2026-05-04 16:08 | 44.30644 | 21.48985 | 35140 ft | 470 kts | 130° |
| 2026-05-04 16:09 | 44.19614 | 21.65739 | 35131 ft | 470 kts | 130° |
| 2026-05-04 16:10 | 44.10748 | 21.79100 | 35135 ft | 468 kts | 130° |
| 2026-05-04 16:11 | 44.01915 | 21.92330 | 35121 ft | 467 kts | 130° |
| 2026-05-04 16:12 | 43.88651 | 22.12122 | 35115 ft | 466 kts | 130° |
| 2026-05-04 16:13 | 43.79815 | 22.25218 | 35103 ft | 465 kts | 130° |
| 2026-05-04 16:14 | 43.70970 | 22.38262 | 35093 ft | 465 kts | 130° |
| 2026-05-04 16:15 | 43.65814 | 22.49382 | 35110 ft | 458 kts | 114° |
| 2026-05-04 16:16 | 43.62944 | 22.57234 | 35105 ft | 458 kts | 114° |
| 2026-05-04 16:17 | 43.55732 | 22.76772 | 35117 ft | 458 kts | 115° |
| 2026-05-04 16:18 | 43.49955 | 22.92357 | 35113 ft | 455 kts | 116° |
| 2026-05-04 16:19 | 43.42741 | 23.11723 | 35122 ft | 453 kts | 117° |
| 2026-05-04 16:20 | 43.35523 | 23.30922 | 35112 ft | 451 kts | 117° |
| 2026-05-04 16:22 | 43.28294 | 23.50049 | 35109 ft | 451 kts | 117° |
| 2026-05-04 16:23 | 43.19566 | 23.72969 | 35112 ft | 453 kts | 117° |
| 2026-05-04 16:25 | 43.10769 | 23.95864 | 35122 ft | 454 kts | 118° |
| 2026-05-04 16:26 | 43.00401 | 24.22657 | 35131 ft | 456 kts | 118° |
| 2026-05-04 16:28 | 42.92928 | 24.41803 | 35132 ft | 458 kts | 117° |
| 2026-05-04 16:29 | 42.82393 | 24.68563 | 35131 ft | 457 kts | 118° |
| 2026-05-04 16:31 | 42.74869 | 24.87517 | 35132 ft | 455 kts | 117° |
| 2026-05-04 16:32 | 42.65871 | 25.10061 | 35110 ft | 451 kts | 117° |
| 2026-05-04 16:33 | 42.60366 | 25.23739 | 35085 ft | 450 kts | 117° |
| 2026-05-04 16:34 | 42.55371 | 25.36128 | 35094 ft | 450 kts | 117° |
| 2026-05-04 16:35 | 42.46827 | 25.57163 | 35065 ft | 450 kts | 118° |
| 2026-05-04 16:36 | 42.42278 | 25.68277 | 35068 ft | 450 kts | 117° |
| 2026-05-04 16:37 | 42.37726 | 25.79388 | 35063 ft | 450 kts | 117° |
| 2026-05-04 16:38 | 42.31646 | 25.94176 | 35067 ft | 450 kts | 117° |
| 2026-05-04 16:39 | 42.23986 | 26.12615 | 35059 ft | 450 kts | 117° |
| 2026-05-04 16:40 | 42.17875 | 26.27321 | 35067 ft | 451 kts | 117° |
| 2026-05-04 16:41 | 42.10182 | 26.45684 | 34325 ft | 448 kts | 117° |
| 2026-05-04 16:42 | 42.05583 | 26.56603 | 33556 ft | 446 kts | 117° |
| 2026-05-04 16:43 | 42.02518 | 26.63877 | 33018 ft | 447 kts | 116° |
| 2026-05-04 16:43 | 41.99439 | 26.71152 | 32374 ft | 448 kts | 117° |
| 2026-05-04 16:43 | 41.97884 | 26.74817 | 31517 ft | 453 kts | 116° |
| 2026-05-04 16:44 | 41.91394 | 26.89363 | 30320 ft | 455 kts | 118° |
| 2026-05-04 16:45 | 41.88017 | 26.96697 | 27633 ft | 463 kts | 117° |
| 2026-05-04 16:46 | 41.83095 | 27.07464 | 27035 ft | 430 kts | 117° |
| 2026-05-04 16:46 | 41.80013 | 27.14133 | 27059 ft | 417 kts | 118° |
| 2026-05-04 16:47 | 41.76428 | 27.20263 | 26731 ft | 419 kts | 126° |
| 2026-05-04 16:47 | 41.72601 | 27.26128 | 26249 ft | 416 kts | 126° |
| 2026-05-04 16:48 | 41.66896 | 27.34816 | 25507 ft | 413 kts | 126° |
| 2026-05-04 16:48 | 41.65000 | 27.37707 | 25257 ft | 411 kts | 126° |
| 2026-05-04 16:49 | 41.61227 | 27.43460 | 24153 ft | 413 kts | 126° |
| 2026-05-04 16:49 | 41.57492 | 27.49119 | 23269 ft | 406 kts | 126° |
| 2026-05-04 16:50 | 41.53789 | 27.54724 | 21992 ft | 398 kts | 126° |
| 2026-05-04 16:50 | 41.50143 | 27.60175 | 20498 ft | 390 kts | 126° |
| 2026-05-04 16:51 | 41.46600 | 27.65552 | 19041 ft | 382 kts | 125° |
| 2026-05-04 16:51 | 41.44856 | 27.68202 | 18353 ft | 378 kts | 125° |
| 2026-05-04 16:51 | 41.41455 | 27.73331 | 17182 ft | 360 kts | 126° |
| 2026-05-04 16:52 | 41.38146 | 27.78299 | 16131 ft | 356 kts | 125° |
| 2026-05-04 16:52 | 41.36507 | 27.80765 | 15626 ft | 355 kts | 125° |
| 2026-05-04 16:53 | 41.33237 | 27.85668 | 14629 ft | 352 kts | 126° |
| 2026-05-04 16:53 | 41.28378 | 27.92954 | 13058 ft | 349 kts | 126° |
| 2026-05-04 16:54 | 41.26771 | 27.95367 | 12512 ft | 348 kts | 126° |
| 2026-05-04 16:55 | 41.20335 | 28.04969 | 10338 ft | 347 kts | 127° |
| 2026-05-04 16:55 | 41.17244 | 28.09548 | 10083 ft | 323 kts | 126° |
| 2026-05-04 16:56 | 41.14295 | 28.13918 | 9576 ft | 312 kts | 126° |
| 2026-05-04 16:56 | 41.09969 | 28.20348 | 8400 ft | 308 kts | 127° |
| 2026-05-04 16:57 | 41.08549 | 28.22456 | 8039 ft | 306 kts | 127° |
| 2026-05-04 16:57 | 41.05743 | 28.26607 | 7306 ft | 302 kts | 128° |
| 2026-05-04 16:58 | 41.01574 | 28.32754 | 6400 ft | 287 kts | 128° |
| 2026-05-04 16:58 | 41.00275 | 28.34661 | 6256 ft | 271 kts | 128° |
| 2026-05-04 16:59 | 40.97814 | 28.38296 | 5722 ft | 262 kts | 123° |
| 2026-05-04 17:00 | 40.94252 | 28.46363 | 5009 ft | 250 kts | 113° |
| 2026-05-04 17:00 | 40.91654 | 28.52375 | 5015 ft | 252 kts | 114° |
| 2026-05-04 17:01 | 40.89957 | 28.56426 | 5024 ft | 249 kts | 105° |
| 2026-05-04 17:01 | 40.89671 | 28.60748 | 5012 ft | 231 kts | 70° |
| 2026-05-04 17:02 | 40.90661 | 28.64675 | 5011 ft | 225 kts | 64° |
| 2026-05-04 17:02 | 40.91876 | 28.68454 | 5013 ft | 220 kts | 47° |
| 2026-05-04 17:03 | 40.92942 | 28.69848 | 5012 ft | 214 kts | 31° |
| 2026-05-04 17:03 | 40.94225 | 28.70828 | 5012 ft | 212 kts | 25° |
| 2026-05-04 17:03 | 40.96774 | 28.72693 | 5004 ft | 203 kts | 24° |
| 2026-05-04 17:04 | 40.99470 | 28.73313 | 5008 ft | 196 kts | 358° |
| 2026-05-04 17:04 | 41.02157 | 28.73243 | 5003 ft | 192 kts | 358° |
| 2026-05-04 17:05 | 41.04734 | 28.73191 | 4592 ft | 181 kts | 359° |
| 2026-05-04 17:05 | 41.07245 | 28.73143 | 4100 ft | 180 kts | 359° |
| 2026-05-04 17:06 | 41.09647 | 28.73096 | 3623 ft | 165 kts | 359° |
| 2026-05-04 17:06 | 41.10792 | 28.73074 | 3402 ft | 165 kts | 359° |
| 2026-05-04 17:07 | 41.13006 | 28.73031 | 2964 ft | 150 kts | 359° |
| 2026-05-04 17:07 | 41.13690 | 28.73018 | 2831 ft | 147 kts | 359° |
| 2026-05-04 17:07 | 41.15034 | 28.72992 | 2571 ft | 146 kts | 360° |
| 2026-05-04 17:07 | 41.16045 | 28.72973 | 2376 ft | 143 kts | 360° |
| 2026-05-04 17:08 | 41.17015 | 28.72954 | 2192 ft | 138 kts | 360° |
| 2026-05-04 17:08 | 41.18917 | 28.72917 | 1818 ft | 135 kts | 360° |
| 2026-05-04 17:08 | 41.19862 | 28.72899 | 1628 ft | 136 kts | 359° |
| 2026-05-04 17:09 | 41.20806 | 28.72881 | 1442 ft | 136 kts | 360° |
| 2026-05-04 17:09 | 41.21750 | 28.72868 | 1195 ft | 136 kts | 0° |
| 2026-05-04 17:09 | 41.22693 | 28.72859 | 1000 ft | 135 kts | 359° |
| 2026-05-04 17:10 | 41.24558 | 28.72807 | 670 ft | 133 kts | 0° |
| 2026-05-04 17:10 | 41.27206 | 28.72754 | 331 ft | 92 kts | 359° |
| 2026-05-04 17:11 | 41.27672 | 28.72742 | 333 ft | 42 kts | 359° |
| 2026-05-04 17:11 | 41.27933 | 28.72760 | 332 ft | 30 kts | 15° |
| 2026-05-04 17:11 | 41.28138 | 28.72924 | 332 ft | 10 kts | 86° |
| 2026-05-04 17:12 | 41.28091 | 28.72960 | 332 ft | 9 kts | 172° |
| 2026-05-04 17:12 | 41.27932 | 28.72964 | 334 ft | 13 kts | 179° |
| 2026-05-04 17:13 | 41.27603 | 28.72972 | 333 ft | 19 kts | 179° |
| 2026-05-04 17:14 | 41.27218 | 28.72982 | 331 ft | 19 kts | 178° |
| 2026-05-04 17:14 | 41.27082 | 28.72985 | 334 ft | 20 kts | 179° |